Borisov, Belarus
Current Conditions -  °F | °C
As of 6:23 AM on Wednesday 26 Nov 2014 (Local Time) from UMMS Reporting Station
Light Fog Light Fog  
Wind Chill: 23°   Ceiling: 200
Heat Index: 23°   Visibility: 1mi
Dew Point: 21°   Wind: 2mph
Humidity: 93%   Direction: 180°S
Pressure: 30.42"   Gusts: NA
Location:  54.22°N, 28.51°E
Report Text: UMMS 260423Z 18001MPS 1600 BCFG BR OVC002 M05/M06 Q1030 R13/810355NOSIG
Loading
Personal Weather Stations






























Interactive Weather Map New forecast layout! Learn more

10-Day Weather Forecast

Advertisements
Track Severe Weather on mobile